Time,TemperatureF,DewpointF,PressureIn,WindDirection,WindDirectionDegrees,WindSpeedMPH,WindSpeedGustMPH,Humidity,HourlyPrecipIn,Conditions,Clouds,dailyrainin,SoftwareType,DateUTC
2013-05-25 00:00:00,44.9,41.3,29.89,NE,34,0.0,3.0,87,0.00,,,0.47,Wunderground v.1.13,2013-05-25 04:00:00,
2013-05-25 00:05:00,45.1,41.5,29.89,South,182,0.0,3.0,87,0.00,,,0.00,Wunderground v.1.13,2013-05-25 04:05:00,
2013-05-25 00:10:00,45.1,41.5,29.89,NW,316,0.0,0.0,87,0.00,,,0.00,Wunderground v.1.13,2013-05-25 04:10:00,
2013-05-25 00:15:00,45.1,41.2,29.89,NNE,28,1.0,1.0,86,0.00,,,0.00,Wunderground v.1.13,2013-05-25 04:15:00,
2013-05-25 00:20:00,45.2,41.0,29.89,NE,54,1.0,1.0,85,0.00,,,0.00,Wunderground v.1.13,2013-05-25 04:20:00,
2013-05-25 00:30:00,45.2,41.0,29.88,NE,56,0.0,0.0,85,0.00,,,0.00,Wunderground v.1.13,2013-05-25 04:30:00,
2013-05-25 00:35:00,45.4,41.5,29.88,NE,56,0.0,0.0,86,0.00,,,0.00,Wunderground v.1.13,2013-05-25 04:35:00,
2013-05-25 00:40:00,45.2,41.0,29.88,NW,319,0.0,1.0,85,0.00,,,0.00,Wunderground v.1.13,2013-05-25 04:40:00,
2013-05-25 00:45:00,45.2,41.3,29.88,NW,319,0.0,0.0,86,0.00,,,0.00,Wunderground v.1.13,2013-05-25 04:45:00,
2013-05-25 00:50:00,45.2,41.6,29.88,NW,319,0.0,0.0,87,0.00,,,0.00,Wunderground v.1.13,2013-05-25 04:50:00,
2013-05-25 01:00:00,45.1,41.5,29.88,NW,319,0.0,0.0,87,0.00,,,0.01,Wunderground v.1.13,2013-05-25 05:00:00,
2013-05-25 01:05:00,45.1,41.5,29.88,NW,319,0.0,0.0,87,0.00,,,0.01,Wunderground v.1.13,2013-05-25 05:05:00,
2013-05-25 01:10:00,44.9,41.6,29.88,NW,319,0.0,0.0,88,0.00,,,0.01,Wunderground v.1.13,2013-05-25 05:10:00,
2013-05-25 01:15:00,44.9,41.6,29.87,NW,319,0.0,0.0,88,0.00,,,0.01,Wunderground v.1.13,2013-05-25 05:15:00,
2013-05-25 01:20:00,44.9,41.9,29.87,NW,319,0.0,0.0,89,0.00,,,0.01,Wunderground v.1.13,2013-05-25 05:20:00,
2013-05-25 01:30:00,44.9,41.9,29.87,NNW,342,0.0,0.0,89,0.00,,,0.01,Wunderground v.1.13,2013-05-25 05:30:00,
2013-05-25 01:35:00,44.9,41.9,29.87,NNW,344,0.0,0.0,89,0.00,,,0.02,Wunderground v.1.13,2013-05-25 05:35:00,
2013-05-25 01:40:00,44.8,41.8,29.87,NE,49,1.0,7.0,89,0.11,,,0.03,Wunderground v.1.13,2013-05-25 05:40:00,
2013-05-25 01:45:00,44.6,41.3,29.87,NE,51,2.0,2.0,88,0.10,,,0.04,Wunderground v.1.13,2013-05-25 05:45:00,
2013-05-25 01:50:00,44.6,41.3,29.87,SSW,200,2.0,2.0,88,0.10,,,0.04,Wunderground v.1.13,2013-05-25 05:50:00,
2013-05-25 02:00:00,44.5,41.2,29.87,NNE,30,2.0,2.0,88,0.08,,,0.05,Wunderground v.1.13,2013-05-25 06:00:00,
2013-05-25 02:05:00,44.5,41.2,29.87,NE,51,2.0,2.0,88,0.05,,,0.05,Wunderground v.1.13,2013-05-25 06:05:00,
2013-05-25 02:10:00,44.5,41.2,29.87,NE,42,1.0,1.0,88,0.05,,,0.06,Wunderground v.1.13,2013-05-25 06:10:00,
2013-05-25 02:15:00,44.3,41.0,29.86,North,8,1.0,1.0,88,0.05,,,0.06,Wunderground v.1.13,2013-05-25 06:15:00,
2013-05-25 02:20:00,44.2,41.2,29.86,NE,54,1.0,1.0,89,0.05,,,0.07,Wunderground v.1.13,2013-05-25 06:20:00,
2013-05-25 02:30:00,44.2,41.5,29.86,NE,42,0.0,1.0,90,0.17,,,0.10,Wunderground v.1.13,2013-05-25 06:30:00,
2013-05-25 02:35:00,44.2,41.5,29.86,East,97,0.0,9.0,90,0.20,,,0.11,Wunderground v.1.13,2013-05-25 06:35:00,
2013-05-25 02:40:00,44.2,41.7,29.86,NE,42,1.0,1.0,91,0.26,,,0.14,Wunderground v.1.13,2013-05-25 06:40:00,
2013-05-25 02:45:00,44.2,41.7,29.85,NE,38,0.0,0.0,91,0.28,,,0.16,Wunderground v.1.13,2013-05-25 06:45:00,
2013-05-25 02:50:00,44.2,41.7,29.85,North,350,1.0,1.0,91,0.21,,,0.18,Wunderground v.1.13,2013-05-25 06:50:00,
2013-05-25 02:55:00,44.1,41.9,29.85,NNE,16,1.0,1.0,92,0.15,,,0.19,Wunderground v.1.13,2013-05-25 06:55:00,
2013-05-25 03:05:00,43.9,41.7,29.85,NE,54,1.0,1.0,92,0.12,,,0.21,Wunderground v.1.13,2013-05-25 07:05:00,
2013-05-25 03:10:00,44.1,41.9,29.85,NE,37,1.0,1.0,92,0.08,,,0.21,Wunderground v.1.13,2013-05-25 07:10:00,
2013-05-25 03:15:00,44.1,41.9,29.85,NE,37,1.0,1.0,92,0.06,,,0.22,Wunderground v.1.13,2013-05-25 07:15:00,
2013-05-25 03:20:00,44.1,41.9,29.85,NE,38,0.0,0.0,92,0.06,,,0.22,Wunderground v.1.13,2013-05-25 07:20:00,
2013-05-25 03:30:00,44.1,41.9,29.85,NE,38,0.0,0.0,92,0.05,,,0.23,Wunderground v.1.13,2013-05-25 07:30:00,
2013-05-25 03:35:00,44.1,42.2,29.85,NE,38,0.0,0.0,93,0.06,,,0.24,Wunderground v.1.13,2013-05-25 07:35:00,
2013-05-25 03:40:00,44.1,42.2,29.85,NW,319,0.0,0.0,93,0.06,,,0.24,Wunderground v.1.13,2013-05-25 07:40:00,
2013-05-25 03:45:00,44.1,42.2,29.85,North,350,0.0,0.0,93,0.06,,,0.24,Wunderground v.1.13,2013-05-25 07:45:00,
2013-05-25 03:50:00,44.1,42.2,29.85,North,350,0.0,0.0,93,0.04,,,0.25,Wunderground v.1.13,2013-05-25 07:50:00,
2013-05-25 04:00:00,43.9,42.0,29.85,North,350,0.0,0.0,93,0.04,,,0.25,Wunderground v.1.13,2013-05-25 08:00:00,
2013-05-25 04:05:00,43.9,42.0,29.85,North,350,0.0,0.0,93,0.04,,,0.25,Wunderground v.1.13,2013-05-25 08:05:00,
2013-05-25 04:10:00,43.9,42.0,29.85,North,350,0.0,0.0,93,0.00,,,0.25,Wunderground v.1.13,2013-05-25 08:10:00,
2013-05-25 04:15:00,43.9,42.3,29.85,North,349,0.0,0.0,94,0.00,,,0.25,Wunderground v.1.13,2013-05-25 08:15:00,
2013-05-25 04:25:00,43.8,42.2,29.85,North,349,0.0,0.0,94,0.00,,,0.25,Wunderground v.1.13,2013-05-25 08:25:00,
2013-05-25 04:30:00,43.8,42.2,29.85,North,354,0.0,0.0,94,0.00,,,0.25,Wunderground v.1.13,2013-05-25 08:30:00,
2013-05-25 04:35:00,43.8,42.2,29.85,North,354,0.0,0.0,94,0.00,,,0.25,Wunderground v.1.13,2013-05-25 08:35:00,
2013-05-25 04:40:00,43.6,42.0,29.85,North,354,0.0,0.0,94,0.00,,,0.25,Wunderground v.1.13,2013-05-25 08:40:00,
2013-05-25 04:45:00,43.6,42.0,29.85,North,354,0.0,0.0,94,0.00,,,0.26,Wunderground v.1.13,2013-05-25 08:45:00,
2013-05-25 04:55:00,43.6,42.0,29.85,NW,306,0.0,0.0,94,0.00,,,0.26,Wunderground v.1.13,2013-05-25 08:55:00,
2013-05-25 05:00:00,43.6,42.0,29.85,NW,309,0.0,0.0,94,0.00,,,0.26,Wunderground v.1.13,2013-05-25 09:00:00,
2013-05-25 05:05:00,43.6,42.0,29.85,NW,311,0.0,0.0,94,0.00,,,0.26,Wunderground v.1.13,2013-05-25 09:05:00,
2013-05-25 05:10:00,43.6,42.0,29.85,NW,311,0.0,0.0,94,0.00,,,0.26,Wunderground v.1.13,2013-05-25 09:10:00,
2013-05-25 05:15:00,43.6,42.0,29.85,NW,320,0.0,2.0,94,0.00,,,0.26,Wunderground v.1.13,2013-05-25 09:15:00,
2013-05-25 05:25:00,43.6,42.0,29.85,North,8,0.0,0.0,94,0.00,,,0.26,Wunderground v.1.13,2013-05-25 09:25:00,
2013-05-25 05:30:00,43.6,42.0,29.85,NE,44,0.0,0.0,94,0.00,,,0.26,Wunderground v.1.13,2013-05-25 09:30:00,
2013-05-25 05:35:00,43.6,42.0,29.85,NE,44,0.0,0.0,94,0.00,,,0.26,Wunderground v.1.13,2013-05-25 09:35:00,
2013-05-25 05:40:00,43.6,42.0,29.85,North,357,0.0,0.0,94,0.00,,,0.26,Wunderground v.1.13,2013-05-25 09:40:00,
2013-05-25 05:45:00,43.6,42.0,29.85,NNW,344,0.0,0.0,94,0.00,,,0.26,Wunderground v.1.13,2013-05-25 09:45:00,
2013-05-25 05:55:00,43.6,41.7,29.85,NNW,343,0.0,2.0,93,0.00,,,0.27,Wunderground v.1.13,2013-05-25 09:55:00,
2013-05-25 06:00:00,43.5,41.6,29.86,NNW,343,0.0,0.0,93,0.17,,,0.29,Wunderground v.1.13,2013-05-25 10:00:00,
2013-05-25 06:05:00,43.5,41.6,29.86,NNW,344,0.0,2.0,93,0.15,,,0.30,Wunderground v.1.13,2013-05-25 10:05:00,
2013-05-25 06:10:00,43.5,41.6,29.86,NNW,343,0.0,0.0,93,0.15,,,0.31,Wunderground v.1.13,2013-05-25 10:10:00,
2013-05-25 06:15:00,43.6,42.0,29.86,NNW,343,0.0,0.0,94,0.08,,,0.31,Wunderground v.1.13,2013-05-25 10:15:00,
2013-05-25 06:25:00,43.6,42.0,29.86,South,174,0.0,0.0,94,0.10,,,0.33,Wunderground v.1.13,2013-05-25 10:25:00,
2013-05-25 06:30:00,43.8,42.2,29.86,South,181,0.0,0.0,94,0.19,,,0.35,Wunderground v.1.13,2013-05-25 10:30:00,
2013-05-25 06:35:00,43.8,42.2,29.86,SE,144,0.0,0.0,94,0.25,,,0.37,Wunderground v.1.13,2013-05-25 10:35:00,
2013-05-25 06:40:00,43.8,42.2,29.86,SE,143,0.0,0.0,94,0.29,,,0.40,Wunderground v.1.13,2013-05-25 10:40:00,
2013-05-25 06:45:00,43.8,42.2,29.86,SE,143,0.0,0.0,94,0.31,,,0.43,Wunderground v.1.13,2013-05-25 10:45:00,
2013-05-25 06:55:00,43.6,42.0,29.86,North,3,0.0,1.0,94,0.32,,,0.47,Wunderground v.1.13,2013-05-25 10:55:00,
2013-05-25 07:00:00,43.5,41.9,29.87,NNE,16,0.0,0.0,94,0.22,,,0.49,Wunderground v.1.13,2013-05-25 11:00:00,
2013-05-25 07:05:00,43.5,41.9,29.87,North,3,0.0,0.0,94,0.17,,,0.51,Wunderground v.1.13,2013-05-25 11:05:00,
2013-05-25 07:10:00,43.5,41.9,29.87,North,359,0.0,0.0,94,0.20,,,0.53,Wunderground v.1.13,2013-05-25 11:10:00,
2013-05-25 07:15:00,43.3,41.7,29.87,NNE,30,0.0,0.0,94,0.20,,,0.54,Wunderground v.1.13,2013-05-25 11:15:00,
2013-05-25 07:25:00,43.2,41.6,29.87,North,4,1.0,1.0,94,0.28,,,0.58,Wunderground v.1.13,2013-05-25 11:25:00,
2013-05-25 07:30:00,43.2,41.6,29.87,NNE,28,2.0,2.0,94,0.27,,,0.61,Wunderground v.1.13,2013-05-25 11:30:00,
2013-05-25 07:35:00,43.2,41.3,29.87,North,0,1.0,1.0,93,0.27,,,0.63,Wunderground v.1.13,2013-05-25 11:35:00,
2013-05-25 07:40:00,43.3,41.7,29.87,NE,41,0.0,0.0,94,0.28,,,0.65,Wunderground v.1.13,2013-05-25 11:40:00,
2013-05-25 07:45:00,43.3,41.7,29.87,NE,41,0.0,0.0,94,0.33,,,0.68,Wunderground v.1.13,2013-05-25 11:45:00,
2013-05-25 07:50:00,43.3,41.7,29.87,North,349,0.0,0.0,94,0.26,,,0.70,Wunderground v.1.13,2013-05-25 11:50:00,
2013-05-25 08:00:00,43.6,42.0,29.87,North,349,0.0,0.0,94,0.17,,,0.73,Wunderground v.1.13,2013-05-25 12:00:00,
2013-05-25 08:05:00,43.8,42.2,29.87,North,349,0.0,0.0,94,0.11,,,0.74,Wunderground v.1.13,2013-05-25 12:05:00,
2013-05-25 08:10:00,43.9,42.3,29.87,North,349,0.0,0.0,94,0.14,,,0.75,Wunderground v.1.13,2013-05-25 12:10:00,
2013-05-25 08:15:00,44.1,42.5,29.87,North,0,0.0,0.0,94,0.09,,,0.76,Wunderground v.1.13,2013-05-25 12:15:00,
2013-05-25 08:20:00,44.2,42.6,29.87,North,0,0.0,1.0,94,0.11,,,0.77,Wunderground v.1.13,2013-05-25 12:20:00,
2013-05-25 08:30:00,44.3,42.7,29.87,NE,54,1.0,2.0,94,0.07,,,0.78,Wunderground v.1.13,2013-05-25 12:30:00,
2013-05-25 08:35:00,44.5,42.9,29.87,NNE,13,1.0,1.0,94,0.11,,,0.79,Wunderground v.1.13,2013-05-25 12:35:00,
2013-05-25 08:40:00,44.6,43.0,29.87,North,11,0.0,0.0,94,0.08,,,0.79,Wunderground v.1.13,2013-05-25 12:40:00,
2013-05-25 08:45:00,44.6,43.0,29.87,North,352,0.0,0.0,94,0.07,,,0.80,Wunderground v.1.13,2013-05-25 12:45:00,
2013-05-25 08:50:00,44.5,42.9,29.87,North,353,0.0,0.0,94,0.07,,,0.81,Wunderground v.1.13,2013-05-25 12:50:00,
2013-05-25 09:00:00,44.6,43.0,29.87,WNW,287,0.0,0.0,94,0.06,,,0.81,Wunderground v.1.13,2013-05-25 13:00:00,
2013-05-25 09:05:00,44.8,43.2,29.87,North,0,0.0,0.0,94,0.05,,,0.82,Wunderground v.1.13,2013-05-25 13:05:00,
2013-05-25 09:10:00,44.9,43.3,29.87,North,0,0.0,0.0,94,0.05,,,0.82,Wunderground v.1.13,2013-05-25 13:10:00,
2013-05-25 09:15:00,45.2,43.6,29.86,North,0,0.0,0.0,94,0.04,,,0.82,Wunderground v.1.13,2013-05-25 13:15:00,
2013-05-25 09:20:00,45.5,43.9,29.86,North,0,0.0,0.0,94,0.00,,,0.82,Wunderground v.1.13,2013-05-25 13:20:00,
2013-05-25 09:30:00,46.1,44.5,29.86,North,0,0.0,0.0,94,0.00,,,0.82,Wunderground v.1.13,2013-05-25 13:30:00,
2013-05-25 09:35:00,46.4,44.8,29.86,North,0,0.0,0.0,94,0.00,,,0.82,Wunderground v.1.13,2013-05-25 13:35:00,
2013-05-25 09:40:00,46.5,44.9,29.86,WSW,258,0.0,0.0,94,0.00,,,0.82,Wunderground v.1.13,2013-05-25 13:40:00,
2013-05-25 09:45:00,47.0,45.4,29.86,WSW,258,0.0,1.0,94,0.00,,,0.82,Wunderground v.1.13,2013-05-25 13:45:00,
2013-05-25 09:50:00,47.4,45.5,29.86,West,260,0.0,0.0,93,0.00,,,0.82,Wunderground v.1.13,2013-05-25 13:50:00,
2013-05-25 10:00:00,47.4,45.2,29.86,West,270,0.0,0.0,92,0.00,,,0.82,Wunderground v.1.13,2013-05-25 14:00:00,
2013-05-25 10:05:00,47.6,45.4,29.86,West,270,0.0,0.0,92,0.00,,,0.82,Wunderground v.1.13,2013-05-25 14:05:00,
2013-05-25 10:10:00,47.9,45.7,29.86,West,270,0.0,0.0,92,0.00,,,0.82,Wunderground v.1.13,2013-05-25 14:10:00,
2013-05-25 10:15:00,47.9,45.7,29.86,West,270,0.0,0.0,92,0.00,,,0.82,Wunderground v.1.13,2013-05-25 14:15:00,
2013-05-25 10:20:00,47.7,45.2,29.86,WNW,301,0.0,0.0,91,0.00,,,0.82,Wunderground v.1.13,2013-05-25 14:20:00,
2013-05-25 10:30:00,47.4,44.9,29.86,WSW,258,1.0,1.0,91,0.00,,,0.83,Wunderground v.1.13,2013-05-25 14:30:00,
2013-05-25 10:35:00,47.4,44.9,29.86,NNE,20,1.0,1.0,91,0.06,,,0.84,Wunderground v.1.13,2013-05-25 14:35:00,
2013-05-25 10:40:00,47.1,44.6,29.86,WSW,254,0.0,0.0,91,0.06,,,0.84,Wunderground v.1.13,2013-05-25 14:40:00,
2013-05-25 10:45:00,47.1,44.9,29.86,NW,306,0.0,0.0,92,0.05,,,0.84,Wunderground v.1.13,2013-05-25 14:45:00,
2013-05-25 10:55:00,47.6,45.4,29.86,WNW,287,0.0,0.0,92,0.00,,,0.84,Wunderground v.1.13,2013-05-25 14:55:00,
2013-05-25 11:00:00,47.6,44.8,29.86,East,85,1.0,1.0,90,0.00,,,0.84,Wunderground v.1.13,2013-05-25 15:00:00,
2013-05-25 11:05:00,47.6,44.8,29.86,SW,230,1.0,1.0,90,0.00,,,0.84,Wunderground v.1.13,2013-05-25 15:05:00,
2013-05-25 11:10:00,47.7,44.9,29.86,NW,322,1.0,1.0,90,0.00,,,0.84,Wunderground v.1.13,2013-05-25 15:10:00,
2013-05-25 11:15:00,47.7,44.3,29.86,SW,229,1.0,1.0,88,0.00,,,0.84,Wunderground v.1.13,2013-05-25 15:15:00,
2013-05-25 11:25:00,48.0,44.6,29.86,WNW,298,1.0,1.0,88,0.00,,,0.84,Wunderground v.1.13,2013-05-25 15:25:00,
2013-05-25 11:30:00,48.0,44.0,29.86,West,267,1.0,1.0,86,0.00,,,0.84,Wunderground v.1.13,2013-05-25 15:30:00,
2013-05-25 11:35:00,48.3,44.6,29.86,NW,316,1.0,1.0,87,0.00,,,0.84,Wunderground v.1.13,2013-05-25 15:35:00,
2013-05-25 11:40:00,48.6,44.6,29.86,SSW,193,0.0,0.0,86,0.00,,,0.84,Wunderground v.1.13,2013-05-25 15:40:00,
2013-05-25 11:45:00,48.8,44.5,29.86,NNW,332,1.0,1.0,85,0.00,,,0.84,Wunderground v.1.13,2013-05-25 15:45:00,
2013-05-25 11:55:00,48.9,44.3,29.86,West,275,1.0,1.0,84,0.00,,,0.84,Wunderground v.1.13,2013-05-25 15:55:00,
2013-05-25 12:00:00,48.8,44.2,29.86,NW,313,1.0,1.0,84,0.00,,,0.84,Wunderground v.1.13,2013-05-25 16:00:00,
2013-05-25 12:05:00,48.9,44.3,29.86,SSW,203,1.0,2.0,84,0.00,,,0.84,Wunderground v.1.13,2013-05-25 16:05:00,
2013-05-25 12:10:00,49.1,44.5,29.86,North,0,1.0,1.0,84,0.00,,,0.84,Wunderground v.1.13,2013-05-25 16:10:00,
2013-05-25 12:15:00,49.1,44.5,29.86,West,260,1.0,1.0,84,0.00,,,0.84,Wunderground v.1.13,2013-05-25 16:15:00,
2013-05-25 12:25:00,48.8,43.9,29.86,West,271,1.0,1.0,83,0.00,,,0.85,Wunderground v.1.13,2013-05-25 16:25:00,
2013-05-25 12:30:00,48.8,44.2,29.86,SW,233,1.0,2.0,84,0.00,,,0.85,Wunderground v.1.13,2013-05-25 16:30:00,
2013-05-25 12:35:00,48.6,44.0,29.86,WNW,301,1.0,1.0,84,0.00,,,0.85,Wunderground v.1.13,2013-05-25 16:35:00,
2013-05-25 12:40:00,48.5,43.9,29.86,WSW,243,1.0,1.0,84,0.00,,,0.85,Wunderground v.1.13,2013-05-25 16:40:00,
2013-05-25 12:45:00,48.3,43.7,29.86,NNW,335,2.0,6.0,84,0.00,,,0.85,Wunderground v.1.13,2013-05-25 16:45:00,
2013-05-25 12:50:00,48.2,43.6,29.86,NNW,346,2.0,2.0,84,0.00,,,0.86,Wunderground v.1.13,2013-05-25 16:50:00,
2013-05-25 13:00:00,47.9,43.6,29.86,WSW,250,1.0,1.0,85,0.07,,,0.87,Wunderground v.1.13,2013-05-25 17:00:00,
2013-05-25 13:05:00,47.9,43.9,29.86,WNW,299,1.0,1.0,86,0.05,,,0.87,Wunderground v.1.13,2013-05-25 17:05:00,
2013-05-25 13:10:00,47.7,43.4,29.86,WSW,254,1.0,1.0,85,0.04,,,0.87,Wunderground v.1.13,2013-05-25 17:10:00,
2013-05-25 13:15:00,47.9,43.6,29.86,SSE,161,1.0,1.0,85,0.00,,,0.87,Wunderground v.1.13,2013-05-25 17:15:00,
2013-05-25 13:20:00,48.0,43.7,29.86,WSW,248,1.0,1.0,85,0.00,,,0.88,Wunderground v.1.13,2013-05-25 17:20:00,
2013-05-25 13:25:00,48.0,43.7,29.86,SSW,198,0.0,3.0,85,0.00,,,0.88,Wunderground v.1.13,2013-05-25 17:25:00,
2013-05-25 13:35:00,48.3,43.4,29.86,North,0,1.0,1.0,83,0.00,,,0.88,Wunderground v.1.13,2013-05-25 17:35:00,
2013-05-25 13:40:00,48.5,43.6,29.86,SW,236,0.0,4.0,83,0.00,,,0.88,Wunderground v.1.13,2013-05-25 17:40:00,
2013-05-25 13:45:00,48.8,43.9,29.86,West,278,1.0,2.0,83,0.00,,,0.88,Wunderground v.1.13,2013-05-25 17:45:00,
2013-05-25 13:50:00,48.9,44.0,29.86,WNW,302,1.0,1.0,83,0.00,,,0.88,Wunderground v.1.13,2013-05-25 17:50:00,
2013-05-25 13:55:00,49.1,43.8,29.86,North,0,1.0,1.0,82,0.00,,,0.88,Wunderground v.1.13,2013-05-25 17:55:00,
2013-05-25 14:00:00,49.1,43.5,29.86,West,260,1.0,1.0,81,0.00,,,0.89,Wunderground v.1.13,2013-05-25 18:00:00,
2013-05-25 14:10:00,49.4,43.8,29.86,NNE,21,1.0,1.0,81,0.00,,,0.89,Wunderground v.1.13,2013-05-25 18:10:00,
2013-05-25 14:15:00,49.2,43.0,29.86,West,263,3.0,6.0,79,0.00,,,0.89,Wunderground v.1.13,2013-05-25 18:15:00,
2013-05-25 14:20:00,49.4,43.5,29.86,West,277,3.0,3.0,80,0.00,,,0.89,Wunderground v.1.13,2013-05-25 18:20:00,
2013-05-25 14:25:00,49.8,43.9,29.86,North,0,1.0,1.0,80,0.00,,,0.89,Wunderground v.1.13,2013-05-25 18:25:00,
2013-05-25 14:30:00,50.1,43.8,29.86,NNW,343,2.0,6.0,79,0.00,,,0.89,Wunderground v.1.13,2013-05-25 18:30:00,
2013-05-25 14:35:00,50.2,43.3,29.86,West,263,3.0,3.0,77,0.00,,,0.89,Wunderground v.1.13,2013-05-25 18:35:00,
2013-05-25 14:40:00,50.5,42.9,29.86,North,356,3.0,4.0,75,0.00,,,0.89,Wunderground v.1.13,2013-05-25 18:40:00,
2013-05-25 14:45:00,50.5,42.9,29.86,West,263,3.0,3.0,75,0.00,,,0.89,Wunderground v.1.13,2013-05-25 18:45:00,
2013-05-25 14:55:00,50.4,42.8,29.86,SSW,199,3.0,3.0,75,0.00,,,0.89,Wunderground v.1.13,2013-05-25 18:55:00,
2013-05-25 15:00:00,50.4,42.8,29.86,North,0,2.0,2.0,75,0.00,,,0.90,Wunderground v.1.13,2013-05-25 19:00:00,
2013-05-25 15:05:00,50.2,41.9,29.86,North,0,3.0,3.0,73,0.00,,,0.90,Wunderground v.1.13,2013-05-25 19:05:00,
2013-05-25 15:10:00,50.1,41.8,29.86,SSW,203,4.0,4.0,73,0.00,,,0.90,Wunderground v.1.13,2013-05-25 19:10:00,
2013-05-25 15:15:00,50.2,41.9,29.87,West,270,3.0,3.0,73,0.00,,,0.90,Wunderground v.1.13,2013-05-25 19:15:00,
2013-05-25 15:20:00,50.4,42.1,29.87,NNW,330,2.0,3.0,73,0.00,,,0.90,Wunderground v.1.13,2013-05-25 19:20:00,
2013-05-25 15:30:00,50.8,41.4,29.87,WNW,292,3.0,3.0,70,0.00,,,0.90,Wunderground v.1.13,2013-05-25 19:30:00,
2013-05-25 15:35:00,50.8,40.6,29.87,West,270,2.0,2.0,68,0.00,,,0.90,Wunderground v.1.13,2013-05-25 19:35:00,
2013-05-25 15:40:00,50.8,40.2,29.87,West,263,4.0,7.0,67,0.00,,,0.90,Wunderground v.1.13,2013-05-25 19:40:00,
2013-05-25 15:45:00,51.3,40.3,29.87,West,267,4.0,4.0,66,0.00,,,0.90,Wunderground v.1.13,2013-05-25 19:45:00,
2013-05-25 15:50:00,51.9,40.9,29.87,West,263,4.0,7.0,66,0.00,,,0.90,Wunderground v.1.13,2013-05-25 19:50:00,
2013-05-25 16:00:00,52.2,40.0,29.87,WSW,239,4.0,4.0,63,0.00,,,0.90,Wunderground v.1.13,2013-05-25 20:00:00,
2013-05-25 16:05:00,52.2,40.4,29.87,SW,236,3.0,3.0,64,0.00,,,0.90,Wunderground v.1.13,2013-05-25 20:05:00,
2013-05-25 16:10:00,51.9,40.1,29.87,West,275,4.0,5.0,64,0.00,,,0.90,Wunderground v.1.13,2013-05-25 20:10:00,
2013-05-25 16:15:00,51.9,40.1,29.87,NW,306,5.0,5.0,64,0.00,,,0.90,Wunderground v.1.13,2013-05-25 20:15:00,
2013-05-25 16:20:00,51.9,40.9,29.87,WNW,289,4.0,4.0,66,0.00,,,0.90,Wunderground v.1.13,2013-05-25 20:20:00,
2013-05-25 16:30:00,51.3,40.7,29.88,SW,236,2.0,2.0,67,0.00,,,0.90,Wunderground v.1.13,2013-05-25 20:30:00,
2013-05-25 16:35:00,50.5,40.7,29.88,North,0,4.0,4.0,69,0.00,,,0.90,Wunderground v.1.13,2013-05-25 20:35:00,
2013-05-25 16:40:00,50.2,40.8,29.88,NW,311,3.0,3.0,70,0.00,,,0.90,Wunderground v.1.13,2013-05-25 20:40:00,
2013-05-25 16:45:00,49.9,41.6,29.89,WNW,298,2.0,2.0,73,0.00,,,0.90,Wunderground v.1.13,2013-05-25 20:45:00,
2013-05-25 16:50:00,49.6,42.0,29.89,WNW,294,1.0,7.0,75,0.00,,,0.90,Wunderground v.1.13,2013-05-25 20:50:00,
2013-05-25 17:00:00,49.1,43.2,29.89,WSW,246,2.0,2.0,80,0.00,,,0.91,Wunderground v.1.13,2013-05-25 21:00:00,
2013-05-25 17:05:00,48.9,43.3,29.89,West,263,1.0,1.0,81,0.05,,,0.92,Wunderground v.1.13,2013-05-25 21:05:00,
2013-05-25 17:10:00,48.6,43.4,29.89,West,272,1.0,1.0,82,0.05,,,0.92,Wunderground v.1.13,2013-05-25 21:10:00,
2013-05-25 17:15:00,48.5,43.3,29.89,WSW,241,1.0,3.0,82,0.05,,,0.92,Wunderground v.1.13,2013-05-25 21:15:00,
2013-05-25 17:20:00,48.3,43.1,29.89,East,85,1.0,1.0,82,0.04,,,0.92,Wunderground v.1.13,2013-05-25 21:20:00,
2013-05-25 17:30:00,48.8,42.6,29.89,West,278,2.0,2.0,79,0.00,,,0.92,Wunderground v.1.13,2013-05-25 21:30:00,
2013-05-25 17:35:00,49.2,42.6,29.89,SW,222,1.0,1.0,78,0.00,,,0.92,Wunderground v.1.13,2013-05-25 21:35:00,
2013-05-25 17:40:00,49.4,42.5,29.89,SW,219,1.0,3.0,77,0.00,,,0.92,Wunderground v.1.13,2013-05-25 21:40:00,
2013-05-25 17:45:00,49.4,41.8,29.89,NW,306,1.0,1.0,75,0.00,,,0.92,Wunderground v.1.13,2013-05-25 21:45:00,
2013-05-25 17:55:00,49.4,41.1,29.89,West,280,2.0,2.0,73,0.00,,,0.92,Wunderground v.1.13,2013-05-25 21:55:00,
2013-05-25 18:00:00,49.4,41.1,29.89,South,191,3.0,11.0,73,0.00,,,0.92,Wunderground v.1.13,2013-05-25 22:00:00,
2013-05-25 18:05:00,49.2,40.2,29.89,NW,312,3.0,3.0,71,0.00,,,0.92,Wunderground v.1.13,2013-05-25 22:05:00,
2013-05-25 18:10:00,49.2,40.2,29.89,WSW,253,3.0,5.0,71,0.00,,,0.92,Wunderground v.1.13,2013-05-25 22:10:00,
2013-05-25 18:15:00,49.2,40.2,29.90,WSW,246,3.0,3.0,71,0.00,,,0.92,Wunderground v.1.13,2013-05-25 22:15:00,
2013-05-25 18:20:00,49.2,40.6,29.90,NNW,333,2.0,2.0,72,0.00,,,0.92,Wunderground v.1.13,2013-05-25 22:20:00,
2013-05-25 18:30:00,49.2,39.5,29.90,West,263,2.0,3.0,69,0.00,,,0.92,Wunderground v.1.13,2013-05-25 22:30:00,
2013-05-25 18:35:00,49.4,39.3,29.90,West,275,2.0,2.0,68,0.00,,,0.92,Wunderground v.1.13,2013-05-25 22:35:00,
2013-05-25 18:40:00,49.4,40.0,29.90,West,268,1.0,2.0,70,0.00,,,0.92,Wunderground v.1.13,2013-05-25 22:40:00,
2013-05-25 18:45:00,49.5,40.1,29.91,WSW,258,1.0,2.0,70,0.00,,,0.92,Wunderground v.1.13,2013-05-25 22:45:00,
2013-05-25 18:50:00,49.5,39.7,29.91,West,277,1.0,1.0,69,0.00,,,0.93,Wunderground v.1.13,2013-05-25 22:50:00,
2013-05-25 19:00:00,49.8,39.7,29.91,WSW,256,2.0,2.0,68,0.00,,,0.93,Wunderground v.1.13,2013-05-25 23:00:00,
2013-05-25 19:05:00,49.8,39.7,29.91,WSW,247,1.0,1.0,68,0.00,,,0.93,Wunderground v.1.13,2013-05-25 23:05:00,
2013-05-25 19:10:00,49.8,39.7,29.91,WSW,253,2.0,2.0,68,0.00,,,0.93,Wunderground v.1.13,2013-05-25 23:10:00,
2013-05-25 19:15:00,49.6,38.7,29.91,North,4,3.0,3.0,66,0.00,,,0.93,Wunderground v.1.13,2013-05-25 23:15:00,
2013-05-25 19:20:00,49.6,38.7,29.91,ESE,102,3.0,3.0,66,0.00,,,0.93,Wunderground v.1.13,2013-05-25 23:20:00,
2013-05-25 19:30:00,49.6,39.1,29.91,WSW,244,2.0,2.0,67,0.00,,,0.93,Wunderground v.1.13,2013-05-25 23:30:00,
2013-05-25 19:35:00,49.5,39.4,29.91,SW,230,2.0,3.0,68,0.00,,,0.93,Wunderground v.1.13,2013-05-25 23:35:00,
2013-05-25 19:40:00,49.5,39.7,29.91,SW,227,1.0,2.0,69,0.00,,,0.93,Wunderground v.1.13,2013-05-25 23:40:00,
2013-05-25 19:45:00,49.4,39.7,29.92,WSW,253,2.0,2.0,69,0.00,,,0.93,Wunderground v.1.13,2013-05-25 23:45:00,
2013-05-25 19:50:00,49.4,39.7,29.92,West,278,2.0,3.0,69,0.00,,,0.93,Wunderground v.1.13,2013-05-25 23:50:00,
2013-05-25 20:00:00,49.1,39.7,29.93,North,10,1.0,1.0,70,0.00,,,0.93,Wunderground v.1.13,2013-05-26 00:00:00,
2013-05-25 20:05:00,48.9,39.9,29.93,West,281,1.0,2.0,71,0.00,,,0.93,Wunderground v.1.13,2013-05-26 00:05:00,
2013-05-25 20:10:00,48.9,39.9,29.93,West,278,1.0,1.0,71,0.00,,,0.93,Wunderground v.1.13,2013-05-26 00:10:00,
2013-05-25 20:15:00,48.8,40.2,29.92,WNW,284,1.0,2.0,72,0.00,,,0.93,Wunderground v.1.13,2013-05-26 00:15:00,
2013-05-25 20:25:00,48.5,40.2,29.92,West,275,2.0,2.0,73,0.00,,,0.93,Wunderground v.1.13,2013-05-26 00:25:00,
2013-05-25 20:30:00,48.6,40.3,29.93,WSW,250,2.0,2.0,73,0.00,,,0.93,Wunderground v.1.13,2013-05-26 00:30:00,
2013-05-25 20:35:00,48.6,40.3,29.93,WSW,258,1.0,1.0,73,0.00,,,0.93,Wunderground v.1.13,2013-05-26 00:35:00,
2013-05-25 20:45:00,48.8,39.8,29.93,NNW,329,1.0,2.0,71,0.00,,,0.93,Wunderground v.1.13,2013-05-26 00:45:00,
2013-05-25 20:50:00,49.1,39.4,29.93,West,277,2.0,2.0,69,0.00,,,0.93,Wunderground v.1.13,2013-05-26 00:50:00,
2013-05-25 20:55:00,49.1,39.7,29.93,West,275,2.0,4.0,70,0.00,,,0.93,Wunderground v.1.13,2013-05-26 00:55:00,
2013-05-25 21:00:00,48.9,39.9,29.93,West,264,3.0,3.0,71,0.00,,,0.94,Wunderground v.1.13,2013-05-26 01:00:00,
2013-05-25 21:05:00,48.5,40.6,29.93,WSW,256,3.0,3.0,74,0.00,,,0.94,Wunderground v.1.13,2013-05-26 01:05:00,
2013-05-25 21:10:00,48.2,41.3,29.93,NNW,343,2.0,3.0,77,0.21,,,0.96,Wunderground v.1.13,2013-05-26 01:10:00,
2013-05-25 21:20:00,46.8,41.0,29.94,West,271,2.0,2.0,80,0.13,,,0.98,Wunderground v.1.13,2013-05-26 01:20:00,
2013-05-25 21:25:00,46.5,41.3,29.94,West,270,1.0,1.0,82,0.07,,,0.98,Wunderground v.1.13,2013-05-26 01:25:00,
2013-05-25 21:30:00,46.2,41.3,29.94,West,270,0.0,0.0,83,0.05,,,0.98,Wunderground v.1.13,2013-05-26 01:30:00,
2013-05-25 21:35:00,46.2,41.6,29.94,SSW,202,1.0,1.0,84,0.00,,,0.98,Wunderground v.1.13,2013-05-26 01:35:00,
2013-05-25 21:40:00,46.2,41.3,29.94,West,270,2.0,3.0,83,0.00,,,0.98,Wunderground v.1.13,2013-05-26 01:40:00,
2013-05-25 21:45:00,46.5,41.3,29.94,West,271,2.0,2.0,82,0.00,,,0.98,Wunderground v.1.13,2013-05-26 01:45:00,
2013-05-25 21:55:00,46.8,41.3,29.94,West,274,1.0,2.0,81,0.00,,,0.98,Wunderground v.1.13,2013-05-26 01:55:00,
2013-05-25 22:00:00,46.8,41.3,29.94,West,274,1.0,1.0,81,0.00,,,0.98,Wunderground v.1.13,2013-05-26 02:00:00,
2013-05-25 22:05:00,47.0,41.1,29.94,West,271,1.0,1.0,80,0.00,,,0.98,Wunderground v.1.13,2013-05-26 02:05:00,
2013-05-25 22:10:00,47.1,40.9,29.94,West,271,1.0,1.0,79,0.00,,,0.98,Wunderground v.1.13,2013-05-26 02:10:00,
2013-05-25 22:15:00,47.1,40.9,29.94,West,271,1.0,1.0,79,0.00,,,0.98,Wunderground v.1.13,2013-05-26 02:15:00,
2013-05-25 22:20:00,47.1,40.6,29.94,West,271,1.0,1.0,78,0.00,,,0.98,Wunderground v.1.13,2013-05-26 02:20:00,
2013-05-25 22:25:00,47.3,40.5,29.94,West,271,1.0,1.0,77,0.00,,,0.98,Wunderground v.1.13,2013-05-26 02:25:00,
2013-05-25 22:35:00,47.3,39.8,29.93,WNW,291,2.0,3.0,75,0.00,,,0.98,Wunderground v.1.13,2013-05-26 02:35:00,
2013-05-25 22:40:00,47.4,39.9,29.93,WSW,237,2.0,3.0,75,0.00,,,0.98,Wunderground v.1.13,2013-05-26 02:40:00,
2013-05-25 22:45:00,47.3,39.8,29.93,WSW,239,2.0,2.0,75,0.00,,,0.98,Wunderground v.1.13,2013-05-26 02:45:00,
2013-05-25 22:50:00,47.3,39.8,29.93,WSW,239,1.0,1.0,75,0.00,,,0.98,Wunderground v.1.13,2013-05-26 02:50:00,
2013-05-25 22:55:00,47.3,39.4,29.93,West,267,1.0,2.0,74,0.00,,,0.98,Wunderground v.1.13,2013-05-26 02:55:00,
2013-05-25 23:00:00,47.3,39.4,29.93,West,261,2.0,2.0,74,0.00,,,0.98,Wunderground v.1.13,2013-05-26 03:00:00,
2013-05-25 23:10:00,47.0,39.5,29.93,West,270,1.0,1.0,75,0.00,,,0.98,Wunderground v.1.13,2013-05-26 03:10:00,
2013-05-25 23:15:00,46.8,39.3,29.92,West,270,1.0,1.0,75,0.00,,,0.98,Wunderground v.1.13,2013-05-26 03:15:00,
2013-05-25 23:20:00,46.8,38.9,29.92,WNW,298,1.0,4.0,74,0.00,,,0.98,Wunderground v.1.13,2013-05-26 03:20:00,
2013-05-25 23:25:00,46.8,38.9,29.92,West,268,1.0,3.0,74,0.00,,,0.98,Wunderground v.1.13,2013-05-26 03:25:00,
2013-05-25 23:30:00,47.0,38.8,29.92,West,268,2.0,2.0,73,0.00,,,0.98,Wunderground v.1.13,2013-05-26 03:30:00,
2013-05-25 23:40:00,47.0,38.8,29.92,WSW,250,1.0,2.0,73,0.00,,,0.98,Wunderground v.1.13,2013-05-26 03:40:00,
2013-05-25 23:45:00,47.0,38.8,29.91,West,268,2.0,2.0,73,0.00,,,0.98,Wunderground v.1.13,2013-05-26 03:45:00,
2013-05-25 23:50:00,47.0,38.4,29.91,West,280,2.0,2.0,72,0.00,,,0.98,Wunderground v.1.13,2013-05-26 03:50:00,
2013-05-25 23:55:00,47.0,38.4,29.91,West,267,2.0,5.0,72,0.00,,,0.98,Wunderground v.1.13,2013-05-26 03:55:00,